Current Conditions
Gedeeltelijk Bewolkt



Rainfall
0.00 (mm) - 0.00 (in)
Pressure
1010.92 (hPa) - 29.85 (inHG)
Visibility

10.0 (km) - 6.2 (miles)
   Temperature
6  °C
43°F
3  °C
Dewpoint
81  %
 Humidity
   Wind Speed
35  km/h
19  kts
22  mph
9.8  m/s
   Wind Direction
 320°
North West
   Airport Data
EHLE
Location Lelystad 20 km (12.43 mi)
Metar :EHLE 091725Z AUTO 32019KT 9999 // FEW016CB BKN035 BKN040 06/03 Q1011 RE// NOSIG
Mon 9th December 18:25 pm
   Raw Metar Info
Raw METAR is the most common format in the world for the transmission of observational weather data. It is highly standardized through the International Civil Aviation Organization (ICAO), which allows it to be understood throughout most of the world.
   API Info
Data Provided by
https://www.checkwx.com/weather/EHLE
   © Info
CSS/SVG/PHP scripts were developed by weather34.com for use in the weather34 template © 2015-2019

Guide Info provided by Metar-Wikipedia